Airfield :
LOGIN :

Register | Disclaimer

   EN    FR    IT 

 










Legend :    VFR   Marginal VFR   IFR   Intensive IFR   Very Intensive IFR
Visi :
Ceiling :
>= 8 km
>= 3000ft
5 to 8 km
1000 to 3000 ft
1500m to 5 km
500 to 1000 ft
800 to 1500m
200 to 500 ft
< 800m
< 200 ft
Symbols :   Thunderstorms  Fog  Heavy snow  Heavy precipitations  Wind > 20 kt
SIGMETs :     Misc.  Thunderstorms  Icing  Turbulence  Mountain Waves  Volcanic Ashes







- Airport Elevation : 1475 ft


LSZC - Buochs Stans

CURRENT METAR :
  • 250150Z AUTO 28003KT 9999 BKN037 SCT046 15/09 Q1020

EXPIRED METARs :
  • 250120Z AUTO 26003KT 160V300 9999 BKN046 BKN060 15/09 Q1020
  • 250050Z AUTO 27003KT 220V300 9999 SCT050 15/09 Q1020
  • 250020Z AUTO 23004KT 190V360 9999 OVC050 15/09 Q1020
  • 242350Z AUTO 24004KT 180V310 9999 FEW060 BKN200 BKN220 16/09 Q1020
  • 242320Z AUTO 26004KT 190V340 9999 NCD 16/10 Q1020
  • 242250Z AUTO VRB03KT 9999 NSC 16/09 Q1020

Expired Forecast.
No reported NOTAMs for that airfield.



MET'MAP, your aeronautical weather chart ! - Copyright ORBIFLY December 2007 - Disclaimer

ORBIFLY MET'MAP TEAM :

Programming & Development : Alexandra Zaïnal
Concept & Development : Baudouin d'Aumeries
Co-Development & Prog : Marc-Olivier Méhu
Technical & hardware support : Manuel Goepfert

Contact : metmap@orbifly.com




SOURCES & CREDITS :

   NOAA